Time;durP1;ratioP1;P1;durP2;ratioP2;P2;SDS_P1;SDS_P2;PMS_P1;PMS_P2;Temp;Humidity;BMP_temperature;BMP_pressure;BME280_temperature;BME280_humidity;BME280_pressure;Samples;Min_cycle;Max_cycle;Signal;HPM_P1;HPM_P2
2021/01/07 00:00:51;;;;;;;15.70;10.87;;;1.60;99.90;;;-143.91;100.00;62816.50;4946167;28;101318;-64
2021/01/07 00:03:17;;;;;;;14.57;10.27;;;1.60;99.90;;;-143.91;100.00;62816.50;4946250;28;101382;-64
2021/01/07 00:05:44;;;;;;;14.27;9.97;;;1.60;99.90;;;-143.91;100.00;62816.50;4946715;28;100196;-65
2021/01/07 00:08:10;;;;;;;17.13;11.30;;;1.50;99.90;;;-143.91;100.00;62816.50;4946815;28;100339;-66
2021/01/07 00:10:36;;;;;;;13.77;9.97;;;1.50;99.90;;;-143.91;100.00;62816.50;4946401;28;101497;-65
2021/01/07 00:13:03;;;;;;;17.17;11.10;;;1.50;99.90;;;-143.91;100.00;62816.50;4946820;28;100511;-65
2021/01/07 00:15:30;;;;;;;15.33;10.83;;;1.50;99.90;;;-143.91;100.00;62816.50;4946622;28;100356;-65
2021/01/07 00:17:57;;;;;;;16.43;11.20;;;1.40;99.90;;;-143.91;100.00;62816.50;4947274;28;100124;-65
2021/01/07 00:20:23;;;;;;;16.53;11.17;;;1.40;99.90;;;-143.91;100.00;62816.50;4945721;28;101885;-66
2021/01/07 00:22:49;;;;;;;16.77;10.80;;;1.50;99.90;;;-143.91;100.00;62816.50;4946580;28;100828;-63
2021/01/07 00:25:16;;;;;;;14.00;10.10;;;1.40;99.90;;;-143.91;100.00;62816.50;4946397;28;100312;-64
2021/01/07 00:27:42;;;;;;;15.90;10.80;;;1.30;99.90;;;-143.91;100.00;62816.50;4946250;28;100150;-65
2021/01/07 00:30:10;;;;;;;16.73;11.00;;;1.50;99.90;;;-143.91;100.00;62816.50;4946184;28;100959;-64
2021/01/07 00:32:37;;;;;;;16.93;10.93;;;1.30;99.90;;;-143.91;100.00;62816.50;4946248;28;101186;-63
2021/01/07 00:35:05;;;;;;;16.07;10.90;;;1.30;99.90;;;-143.91;100.00;62816.50;4946009;28;100247;-63
2021/01/07 00:37:32;;;;;;;15.57;10.43;;;1.20;99.90;;;-143.91;100.00;62816.50;4945895;28;100342;-66
2021/01/07 00:39:58;;;;;;;15.83;10.10;;;1.30;99.90;;;-143.91;100.00;62816.50;4946354;28;101095;-64
2021/01/07 00:42:24;;;;;;;14.17;10.03;;;1.30;99.90;;;-143.91;100.00;62816.50;4945668;28;101071;-63
2021/01/07 00:44:51;;;;;;;17.47;10.70;;;1.30;99.90;;;-143.91;100.00;62816.50;4943644;28;100642;-62
2021/01/07 00:47:17;;;;;;;13.50;9.23;;;1.20;99.90;;;-143.91;100.00;62816.50;4944119;28;100706;-64
2021/01/07 00:49:45;;;;;;;14.80;9.93;;;1.20;99.90;;;-143.91;100.00;62816.50;4945748;28;101460;-64
2021/01/07 00:52:16;;;;;;;13.53;9.50;;;1.30;99.90;;;-143.91;100.00;62816.50;4943912;28;102373;-63
2021/01/07 00:54:43;;;;;;;15.07;9.40;;;1.20;99.90;;;-143.91;100.00;62816.50;4944578;28;100206;-64
2021/01/07 00:57:14;;;;;;;12.70;8.97;;;1.10;99.90;;;-143.91;100.00;62816.50;4946303;28;100229;-64
2021/01/07 00:59:40;;;;;;;13.53;8.47;;;1.10;99.90;;;-143.91;100.00;62816.50;4945566;28;100751;-64
2021/01/07 01:02:07;;;;;;;13.10;8.87;;;1.20;99.90;;;-143.91;100.00;62816.50;4945832;28;100780;-63
2021/01/07 01:04:33;;;;;;;12.13;9.17;;;1.20;99.90;;;-143.91;100.00;62816.50;4946103;28;100147;-65
2021/01/07 01:07:01;;;;;;;12.00;8.37;;;1.20;99.90;;;-143.91;100.00;62816.50;4946378;28;100086;-64
2021/01/07 01:09:27;;;;;;;12.67;8.60;;;1.20;99.90;;;-143.91;100.00;62816.50;4944848;28;101130;-64
2021/01/07 01:11:54;;;;;;;10.80;7.57;;;1.20;99.90;;;-143.91;100.00;62816.50;4945609;28;100695;-63
2021/01/07 01:14:21;;;;;;;13.07;9.00;;;1.20;99.90;;;-143.91;100.00;62816.50;4945574;28;100285;-62
2021/01/07 01:16:48;;;;;;;12.57;8.67;;;1.20;99.90;;;-143.91;100.00;62816.50;4945226;28;101941;-63
2021/01/07 01:19:16;;;;;;;12.17;8.47;;;1.40;99.90;;;-143.91;100.00;62816.50;4945200;28;102036;-62
2021/01/07 01:21:42;;;;;;;11.40;8.03;;;1.20;99.90;;;-143.91;100.00;62816.50;4945250;28;101744;-63
2021/01/07 01:24:10;;;;;;;12.13;7.87;;;1.20;99.90;;;-143.91;100.00;62816.50;4945525;28;100206;-65
2021/01/07 01:26:37;;;;;;;10.17;7.30;;;1.20;99.90;;;-143.91;100.00;62816.50;4945708;28;100707;-64
2021/01/07 01:29:04;;;;;;;13.30;8.37;;;1.20;99.90;;;-143.91;100.00;62816.50;4945366;28;101875;-66
2021/01/07 01:31:30;;;;;;;11.70;8.17;;;1.30;99.90;;;-143.91;100.00;62816.50;4944843;28;101137;-65
2021/01/07 01:33:57;;;;;;;10.67;7.30;;;1.30;99.90;;;-143.91;100.00;62816.50;4945019;28;99985;-62
2021/01/07 01:36:25;;;;;;;11.97;7.87;;;1.30;99.90;;;-143.91;100.00;62816.50;4945634;28;100499;-65
2021/01/07 01:38:51;;;;;;;10.33;7.73;;;1.20;99.90;;;-143.91;100.00;62816.50;4945436;28;101619;-66
2021/01/07 01:41:18;;;;;;;11.63;7.70;;;1.30;99.90;;;-143.91;100.00;62816.50;4945765;28;100185;-65
2021/01/07 01:43:45;;;;;;;10.93;7.63;;;1.20;99.90;;;-143.91;100.00;62816.50;4945264;28;100021;-63
2021/01/07 01:46:11;;;;;;;10.53;7.77;;;1.20;99.90;;;-143.91;100.00;62816.50;4945691;28;99976;-63
2021/01/07 01:48:41;;;;;;;12.23;7.57;;;1.30;99.90;;;-143.91;100.00;62816.50;4944370;28;101588;-64
2021/01/07 01:51:08;;;;;;;11.20;7.50;;;1.80;99.90;;;-143.91;100.00;62816.50;4945540;28;100383;-63
2021/01/07 01:53:37;;;;;;;11.10;7.23;;;1.10;99.90;;;-143.91;100.00;62816.50;4945358;28;100059;-64
2021/01/07 01:56:05;;;;;;;12.43;8.40;;;1.20;99.90;;;-143.91;100.00;62816.50;4945357;28;100079;-62
2021/01/07 01:58:35;;;;;;;10.50;7.47;;;1.10;99.90;;;-143.91;100.00;62816.50;4944115;28;101722;-64
2021/01/07 02:01:02;;;;;;;10.80;7.33;;;1.30;99.90;;;-143.91;100.00;62816.50;4944230;28;100702;-63
2021/01/07 02:03:29;;;;;;;11.63;7.37;;;1.60;99.90;;;-143.91;100.00;62816.50;4945271;28;100453;-63
2021/01/07 02:05:57;;;;;;;11.97;8.13;;;1.20;99.90;;;-143.91;100.00;62816.50;4944734;28;100350;-65
2021/01/07 02:08:25;;;;;;;10.73;6.73;;;1.20;99.90;;;-143.91;100.00;62816.50;4945001;28;100930;-64
2021/01/07 02:10:52;;;;;;;10.50;7.87;;;1.20;99.90;;;-143.91;100.00;62816.50;4943918;28;100686;-65
2021/01/07 02:13:19;;;;;;;8.43;6.63;;;1.20;99.90;;;-143.91;100.00;62816.50;4943567;28;100182;-65
2021/01/07 02:15:46;;;;;;;10.10;7.30;;;1.30;99.90;;;-143.91;100.00;62816.50;4944966;28;100213;-63
2021/01/07 02:18:13;;;;;;;11.87;8.20;;;1.20;99.90;;;-143.91;100.00;62816.50;4944199;28;100927;-64
2021/01/07 02:20:40;;;;;;;10.43;7.77;;;1.20;99.90;;;-143.91;100.00;62816.50;4924953;28;101311;-63
2021/01/07 02:23:06;;;;;;;10.40;7.50;;;1.30;99.90;;;-143.91;100.00;62816.50;4924755;28;100082;-63
2021/01/07 02:25:33;;;;;;;9.40;6.87;;;1.30;99.90;;;-143.91;100.00;62816.50;4933221;28;100444;-64
2021/01/07 02:28:00;;;;;;;10.77;7.47;;;1.10;99.90;;;-143.91;100.00;62816.50;4944596;28;101323;-65
2021/01/07 02:30:26;;;;;;;10.73;7.40;;;1.20;99.90;;;-143.91;100.00;62816.50;4946545;28;101016;-65
2021/01/07 02:32:53;;;;;;;8.97;6.70;;;1.30;99.90;;;-143.91;100.00;62816.50;4949468;28;100034;-61
2021/01/07 02:35:19;;;;;;;11.17;7.53;;;1.30;99.90;;;-143.91;100.00;62816.50;4945507;28;100154;-64
2021/01/07 02:37:47;;;;;;;10.43;7.37;;;1.30;99.90;;;-143.91;100.00;62816.50;4943758;28;101468;-62
2021/01/07 02:40:14;;;;;;;10.27;7.17;;;1.80;99.90;;;-143.91;100.00;62816.50;4945075;28;102461;-62
2021/01/07 02:42:41;;;;;;;10.57;7.13;;;1.20;99.90;;;-143.91;100.00;62816.50;4944338;28;100168;-63
2021/01/07 02:45:09;;;;;;;10.23;7.00;;;1.10;99.90;;;-143.91;100.00;62816.50;4943978;28;100368;-64
2021/01/07 02:47:36;;;;;;;8.97;6.57;;;1.20;99.90;;;-143.91;100.00;62816.50;4924215;28;100996;-64
2021/01/07 02:50:03;;;;;;;9.73;7.37;;;1.30;99.90;;;-143.91;100.00;62816.50;4924039;28;101401;-65
2021/01/07 02:52:30;;;;;;;10.53;6.70;;;1.30;99.90;;;-143.91;100.00;62816.50;4927422;28;100104;-62
2021/01/07 02:54:57;;;;;;;14.40;7.53;;;1.40;99.90;;;-143.91;100.00;62816.50;4944064;28;100346;-65
2021/01/07 02:57:24;;;;;;;8.80;6.87;;;1.30;99.90;;;-143.91;100.00;62816.50;4943960;28;100883;-63
2021/01/07 02:59:50;;;;;;;10.30;6.83;;;1.20;99.90;;;-143.91;100.00;62816.50;4943549;28;100638;-64
2021/01/07 03:02:16;;;;;;;8.27;5.90;;;1.20;99.90;;;-143.91;100.00;62816.50;4943967;28;100321;-63
2021/01/07 03:04:43;;;;;;;9.23;6.50;;;1.30;99.90;;;-143.91;100.00;62816.50;4944926;28;100222;-63
2021/01/07 03:07:09;;;;;;;10.93;6.67;;;1.30;99.90;;;-143.91;100.00;62816.50;4943383;28;101657;-62
2021/01/07 03:09:36;;;;;;;9.43;6.20;;;1.30;99.90;;;-143.91;100.00;62816.50;4943646;28;101070;-62
2021/01/07 03:12:12;;;;;;;9.30;6.73;;;1.40;99.90;;;-143.91;100.00;62816.50;4942682;28;100586;-63
2021/01/07 03:14:39;;;;;;;9.63;6.37;;;1.80;99.90;;;-143.91;100.00;62816.50;4943473;28;100175;-63
2021/01/07 03:17:06;;;;;;;9.70;6.73;;;1.30;99.90;;;-143.91;100.00;62816.50;4943673;28;101391;-64
2021/01/07 03:19:32;;;;;;;9.80;6.73;;;1.20;99.90;;;-143.91;100.00;62816.50;4944145;28;100722;-64
2021/01/07 03:21:58;;;;;;;9.27;6.97;;;1.30;99.90;;;-143.91;100.00;62816.50;4944307;28;100141;-63
2021/01/07 03:24:25;;;;;;;9.63;6.77;;;1.20;99.90;;;-143.91;100.00;62816.50;4944811;28;100342;-63
2021/01/07 03:26:52;;;;;;;10.33;7.13;;;2.30;99.90;;;-143.91;100.00;62816.50;4946837;28;101409;-62
2021/01/07 03:29:19;;;;;;;12.77;7.63;;;1.30;99.90;;;-143.91;100.00;62816.50;4947614;28;100106;-62
2021/01/07 03:31:45;;;;;;;10.70;7.83;;;1.20;99.90;;;-143.91;100.00;62816.50;4946988;28;100253;-62
2021/01/07 03:34:12;;;;;;;12.37;7.60;;;2.10;99.90;;;-143.91;100.00;62816.50;4947815;28;100151;-63
2021/01/07 03:36:38;;;;;;;12.27;8.37;;;1.10;99.90;;;-143.91;100.00;62816.50;4945308;28;101469;-62
2021/01/07 03:39:05;;;;;;;11.23;7.57;;;1.20;99.90;;;-143.91;100.00;62816.50;4946718;28;101974;-64
2021/01/07 03:41:31;;;;;;;11.30;7.67;;;1.10;99.90;;;-143.91;100.00;62816.50;4947119;28;100047;-63
2021/01/07 03:43:58;;;;;;;13.00;8.17;;;1.10;99.90;;;-143.91;100.00;62816.50;4939232;28;100200;-62
2021/01/07 03:46:25;;;;;;;14.30;9.60;;;1.10;99.90;;;-143.91;100.00;62816.50;4946823;28;101059;-64
2021/01/07 03:48:52;;;;;;;14.70;9.67;;;1.00;99.90;;;-143.91;100.00;62816.50;4946325;28;101161;-64
2021/01/07 03:51:18;;;;;;;12.97;8.80;;;1.10;99.90;;;-143.91;100.00;62816.50;4946672;28;100155;-64
2021/01/07 03:53:44;;;;;;;16.40;9.53;;;1.00;99.90;;;-143.91;100.00;62816.50;4947579;28;100075;-64
2021/01/07 03:56:11;;;;;;;16.10;9.93;;;1.10;99.90;;;-143.91;100.00;62816.50;4946195;28;101430;-63
2021/01/07 03:58:37;;;;;;;13.97;9.67;;;1.10;99.90;;;-143.91;100.00;62816.50;4946173;28;101470;-63
2021/01/07 04:01:04;;;;;;;14.40;9.57;;;1.00;99.90;;;-143.91;100.00;62816.50;4946067;28;100411;-64
2021/01/07 04:03:31;;;;;;;14.00;9.77;;;1.10;99.90;;;-143.91;100.00;62816.50;4946522;28;100228;-63
2021/01/07 04:05:58;;;;;;;18.13;10.80;;;1.20;99.90;;;-143.91;100.00;62816.50;4946508;28;101834;-64
2021/01/07 04:08:24;;;;;;;20.67;10.53;;;1.10;99.90;;;-143.91;100.00;62816.50;4946413;28;101057;-63
2021/01/07 04:10:51;;;;;;;18.30;11.23;;;1.10;99.90;;;-143.91;100.00;62816.50;4945825;28;100151;-63
2021/01/07 04:13:17;;;;;;;17.47;10.90;;;1.10;99.90;;;-143.91;100.00;62816.50;4946857;28;100360;-64
2021/01/07 04:15:44;;;;;;;15.60;11.13;;;1.20;99.90;;;-143.91;100.00;62816.50;4945449;28;101438;-62
2021/01/07 04:18:11;;;;;;;17.00;9.83;;;1.20;99.90;;;-143.91;100.00;62816.50;4946720;28;100497;-62
2021/01/07 04:20:38;;;;;;;20.00;11.60;;;1.20;99.90;;;-143.91;100.00;62816.50;4946160;28;100083;-64
2021/01/07 04:23:04;;;;;;;14.77;10.23;;;1.20;99.90;;;-143.91;100.00;62816.50;4946536;28;100278;-63
2021/01/07 04:25:31;;;;;;;24.10;11.93;;;1.20;99.90;;;-143.91;100.00;62816.50;4944906;28;101359;-64
2021/01/07 04:27:57;;;;;;;17.80;11.17;;;1.20;99.90;;;-143.91;100.00;62816.50;4946281;28;100881;-63
2021/01/07 04:30:23;;;;;;;16.93;11.27;;;1.20;99.90;;;-143.91;100.00;62816.50;4945940;28;100121;-63
2021/01/07 04:32:59;;;;;;;15.17;10.47;;;1.30;99.90;;;-143.91;100.00;62816.50;4946921;28;100200;-62
2021/01/07 04:35:25;;;;;;;16.00;11.17;;;1.40;99.90;;;-143.91;100.00;62816.50;4944912;28;101486;-64
2021/01/07 04:37:53;;;;;;;15.60;11.27;;;1.30;99.90;;;-143.91;100.00;62816.50;4945504;28;101096;-63
2021/01/07 04:40:19;;;;;;;15.23;10.33;;;1.40;99.90;;;-143.91;100.00;62816.50;4927732;28;100630;-63
2021/01/07 04:42:46;;;;;;;14.77;10.47;;;1.50;99.90;;;-143.91;100.00;62816.50;4946411;28;100145;-63
2021/01/07 04:45:13;;;;;;;19.43;11.90;;;1.30;99.90;;;-143.91;100.00;62816.50;4926740;28;103937;-62
2021/01/07 04:47:40;;;;;;;16.37;10.97;;;2.30;99.90;;;-143.91;100.00;62816.50;4945286;28;101388;-63
2021/01/07 04:50:09;;;;;;;14.40;9.87;;;1.40;99.90;;;-143.91;100.00;62816.50;4945566;28;99995;-65
2021/01/07 04:52:35;;;;;;;16.13;10.90;;;1.40;99.90;;;-143.91;100.00;62816.50;4946203;28;100558;-64
2021/01/07 04:55:04;;;;;;;16.80;10.93;;;1.50;99.90;;;-143.91;100.00;62816.50;4945362;28;101111;-62
2021/01/07 04:57:31;;;;;;;43.13;13.70;;;1.40;99.90;;;-143.91;100.00;62816.50;4945911;28;101299;-64
2021/01/07 04:59:57;;;;;;;17.37;11.17;;;1.50;99.90;;;-143.91;100.00;62816.50;4946032;28;100518;-65
2021/01/07 05:02:24;;;;;;;15.33;10.77;;;1.30;99.90;;;-143.91;100.00;62816.50;4927868;28;100236;-63
2021/01/07 05:04:52;;;;;;;16.43;11.07;;;1.40;99.90;;;-143.91;100.00;62816.50;4945184;28;100241;-62
2021/01/07 05:07:20;;;;;;;14.20;9.90;;;1.40;99.90;;;-143.91;100.00;62816.50;4946242;28;100936;-64
2021/01/07 05:09:47;;;;;;;14.33;10.20;;;1.60;99.90;;;-143.91;100.00;62816.50;4946117;28;100199;-62
2021/01/07 05:12:15;;;;;;;14.73;10.17;;;2.30;99.90;;;-143.91;100.00;62816.50;4945283;28;100165;-62
2021/01/07 05:14:43;;;;;;;15.10;10.20;;;1.60;99.90;;;-143.91;100.00;62816.50;4944703;28;101142;-64
2021/01/07 05:17:12;;;;;;;15.37;9.80;;;1.50;99.90;;;-143.91;100.00;62816.50;4945447;28;100721;-63
2021/01/07 05:19:39;;;;;;;14.50;9.57;;;1.40;99.90;;;-143.91;100.00;62816.50;4945387;28;100139;-64
2021/01/07 05:22:06;;;;;;;15.47;9.83;;;1.40;99.90;;;-143.91;100.00;62816.50;4945593;28;100389;-62
2021/01/07 05:24:34;;;;;;;36.53;10.83;;;1.50;99.90;;;-143.91;100.00;62816.50;4944858;28;101468;-62
2021/01/07 05:27:06;;;;;;;13.13;9.50;;;1.80;99.90;;;-143.91;100.00;62816.50;4945193;28;100918;-65
2021/01/07 05:29:34;;;;;;;14.23;9.63;;;1.50;99.90;;;-143.91;100.00;62816.50;4945629;28;100304;-64
2021/01/07 05:32:01;;;;;;;14.33;9.87;;;1.50;99.90;;;-143.91;100.00;62816.50;4938075;28;100306;-64
2021/01/07 05:34:27;;;;;;;13.57;9.70;;;0.90;99.90;;;-143.91;100.00;62816.50;4944987;28;100724;-62
2021/01/07 05:36:58;;;;;;;15.50;10.10;;;1.50;99.90;;;-143.91;100.00;62816.50;4944471;28;100473;-62
2021/01/07 05:39:33;;;;;;;43.47;12.60;;;1.60;99.90;;;-143.91;100.00;62816.50;4944534;28;100108;-63
2021/01/07 05:42:01;;;;;;;17.37;10.37;;;1.60;99.90;;;-143.91;100.00;62816.50;4945253;28;100550;-63
2021/01/07 05:44:33;;;;;;;14.63;10.07;;;1.60;99.90;;;-143.91;100.00;62816.50;4944632;28;101574;-62
2021/01/07 05:46:59;;;;;;;13.17;9.47;;;1.60;99.90;;;-143.91;100.00;62816.50;4944243;28;100505;-63
2021/01/07 05:49:36;;;;;;;15.80;11.00;;;1.70;99.90;;;-143.91;100.00;62816.50;4945616;28;100312;-61
2021/01/07 05:52:07;;;;;;;12.97;9.00;;;1.60;99.90;;;-143.91;100.00;62816.50;4945822;28;100438;-65
2021/01/07 05:54:34;;;;;;;16.13;10.30;;;2.10;99.90;;;-143.91;100.00;62816.50;4944948;28;100954;-62
2021/01/07 05:57:04;;;;;;;18.17;10.37;;;1.60;99.90;;;-143.91;100.00;62816.50;4945215;28;101392;-63
2021/01/07 05:59:33;;;;;;;15.67;9.97;;;1.60;99.90;;;-143.91;100.00;62816.50;4944963;28;100329;-63
2021/01/07 06:02:04;;;;;;;15.47;10.57;;;1.70;99.90;;;-143.91;100.00;62816.50;4945167;28;100335;-63
2021/01/07 06:04:33;;;;;;;13.97;10.73;;;1.60;99.90;;;-143.91;100.00;62816.50;4946302;28;101696;-64
2021/01/07 06:07:01;;;;;;;15.87;10.93;;;1.60;99.90;;;-143.91;100.00;62816.50;4947718;28;100293;-62
2021/01/07 06:09:30;;;;;;;51.20;14.40;;;1.60;99.90;;;-143.91;100.00;62816.50;4944768;28;100331;-63
2021/01/07 06:11:58;;;;;;;16.33;11.37;;;1.80;99.90;;;-143.91;100.00;62816.50;4944470;28;100226;-62
2021/01/07 06:14:26;;;;;;;14.33;10.30;;;1.50;99.90;;;-143.91;100.00;62816.50;4943876;28;100656;-63
2021/01/07 06:16:54;;;;;;;16.57;10.63;;;1.70;99.90;;;-143.91;100.00;62816.50;4943805;28;101310;-63
2021/01/07 06:19:32;;;;;;;12.47;8.70;;;1.70;99.90;;;-143.91;100.00;62816.50;4944751;28;100190;-63
2021/01/07 06:22:00;;;;;;;14.20;9.47;;;1.80;99.90;;;-143.91;100.00;62816.50;4944751;28;100458;-63
2021/01/07 06:24:27;;;;;;;14.47;9.27;;;1.60;99.90;;;-143.91;100.00;62816.50;4944391;28;100872;-63
2021/01/07 06:26:53;;;;;;;17.93;11.03;;;1.70;99.90;;;-143.91;100.00;62816.50;4944638;28;101124;-63
2021/01/07 06:29:20;;;;;;;15.40;10.97;;;1.50;99.90;;;-143.91;100.00;62816.50;4943940;28;100111;-63
2021/01/07 06:31:56;;;;;;;15.13;9.57;;;1.70;99.90;;;-143.91;100.00;62816.50;4944086;28;100147;-62
2021/01/07 06:34:26;;;;;;;16.87;10.20;;;1.60;99.90;;;-143.91;100.00;62816.50;4925852;28;101818;-64
2021/01/07 06:36:54;;;;;;;16.07;10.50;;;1.60;99.90;;;-143.91;100.00;62816.50;4943600;28;101124;-62
2021/01/07 06:39:22;;;;;;;17.83;10.70;;;1.60;99.90;;;-143.91;100.00;62816.50;4945177;28;100550;-62
2021/01/07 06:41:57;;;;;;;16.63;9.77;;;1.60;99.90;;;-143.91;100.00;62816.50;4944205;28;100241;-62
2021/01/07 06:44:24;;;;;;;17.37;10.63;;;1.50;99.90;;;-143.91;100.00;62816.50;4921852;28;101200;-64
2021/01/07 06:46:50;;;;;;;15.43;10.03;;;1.50;99.90;;;-143.91;100.00;62816.50;4921487;28;101529;-62
2021/01/07 06:49:26;;;;;;;16.67;10.33;;;1.70;99.90;;;-143.91;100.00;62816.50;4932339;28;100017;-64
2021/01/07 06:51:57;;;;;;;14.40;9.80;;;1.70;99.90;;;-143.91;100.00;62816.50;4941688;28;101520;-62
2021/01/07 06:54:32;;;;;;;18.83;10.30;;;1.50;99.90;;;-143.91;100.00;62816.50;4940949;28;100747;-62
2021/01/07 06:57:02;;;;;;;16.37;9.77;;;1.70;99.90;;;-143.91;100.00;62816.50;4941830;28;100304;-62
2021/01/07 06:59:29;;;;;;;17.17;10.20;;;1.60;99.90;;;-143.91;100.00;62816.50;4942832;28;100115;-62
2021/01/07 07:01:58;;;;;;;15.57;10.97;;;1.70;99.90;;;-143.91;100.00;62816.50;4945581;28;100543;-63
2021/01/07 07:04:27;;;;;;;15.07;10.30;;;2.60;99.90;;;-143.91;100.00;62816.50;4945152;28;101074;-62
2021/01/07 07:07:02;;;;;;;16.53;9.73;;;1.60;99.90;;;-143.91;100.00;62816.50;4944568;28;101043;-63
2021/01/07 07:09:38;;;;;;;16.50;10.97;;;1.60;99.90;;;-143.91;100.00;62816.50;4945542;28;100299;-62
2021/01/07 07:12:06;;;;;;;15.30;10.23;;;1.50;99.90;;;-143.91;100.00;62816.50;4944603;28;100031;-61
2021/01/07 07:14:33;;;;;;;14.80;10.40;;;1.60;99.90;;;-143.91;100.00;62816.50;4944898;28;100882;-65
2021/01/07 07:17:07;;;;;;;14.63;10.77;;;1.60;99.90;;;-143.91;100.00;62816.50;4944165;28;100312;-64
2021/01/07 07:19:38;;;;;;;13.73;9.73;;;1.70;99.90;;;-143.91;100.00;62816.50;4944443;28;100333;-65
2021/01/07 07:22:08;;;;;;;14.20;10.53;;;1.60;99.90;;;-143.91;100.00;62816.50;4945399;28;100194;-65
2021/01/07 07:24:39;;;;;;;14.83;9.83;;;1.70;99.90;;;-143.91;100.00;62816.50;4945035;28;100917;-65
2021/01/07 07:27:14;;;;;;;13.30;9.80;;;1.70;99.90;;;-143.91;100.00;62816.50;4944659;28;100414;-64
2021/01/07 07:29:47;;;;;;;17.60;11.43;;;1.70;99.90;;;-143.91;100.00;62816.50;4944536;28;100229;-64
2021/01/07 07:32:22;;;;;;;15.10;11.13;;;1.80;99.90;;;-143.91;100.00;62816.50;4945050;28;100027;-63
2021/01/07 07:34:51;;;;;;;16.70;10.40;;;1.70;99.90;;;-143.91;100.00;62816.50;4944173;28;100715;-64
2021/01/07 07:37:22;;;;;;;15.03;9.93;;;1.70;99.90;;;-143.91;100.00;62816.50;4926483;28;101359;-63
2021/01/07 07:39:50;;;;;;;16.90;10.77;;;1.80;99.90;;;-143.91;100.00;62816.50;4944656;28;100300;-63
2021/01/07 07:42:18;;;;;;;13.73;8.47;;;1.70;99.90;;;-143.91;100.00;62816.50;4945018;28;100120;-64
2021/01/07 07:44:44;;;;;;;15.80;10.50;;;1.70;99.90;;;-143.91;100.00;62816.50;4943515;28;101052;-63
2021/01/07 07:47:11;;;;;;;16.97;11.37;;;1.80;99.90;;;-143.91;100.00;62816.50;4944103;28;100260;-64
2021/01/07 07:49:37;;;;;;;16.00;10.83;;;1.70;99.90;;;-143.91;100.00;62816.50;4944206;28;100037;-64
2021/01/07 07:52:05;;;;;;;15.57;10.50;;;1.70;99.90;;;-143.91;100.00;62816.50;4944277;28;100074;-64
2021/01/07 07:54:31;;;;;;;17.37;11.27;;;1.60;99.90;;;-143.91;100.00;62816.50;4944130;28;101500;-62
2021/01/07 07:57:00;;;;;;;16.20;10.87;;;1.80;99.90;;;-143.91;100.00;62816.50;4944204;28;100774;-63
2021/01/07 07:59:27;;;;;;;16.57;10.87;;;1.90;99.90;;;-143.91;100.00;62816.50;4942280;28;99994;-64
2021/01/07 08:01:54;;;;;;;16.93;11.17;;;1.70;99.90;;;-143.91;100.00;62816.50;4944613;28;100177;-64
2021/01/07 08:04:23;;;;;;;15.20;10.90;;;1.80;99.90;;;-143.91;100.00;62816.50;4943355;28;101632;-64
2021/01/07 08:06:51;;;;;;;15.10;10.70;;;1.80;99.90;;;-143.91;100.00;62816.50;4943965;28;101590;-64
2021/01/07 08:09:20;;;;;;;13.30;9.73;;;1.70;99.90;;;-143.91;100.00;62816.50;4943962;28;99975;-63
2021/01/07 08:11:49;;;;;;;16.60;10.37;;;1.90;99.90;;;-143.91;100.00;62816.50;4940025;28;100476;-65
2021/01/07 08:14:19;;;;;;;17.80;11.37;;;1.80;99.90;;;-143.91;100.00;62816.50;4944271;28;100207;-63
2021/01/07 08:16:46;;;;;;;16.80;11.33;;;1.80;99.90;;;-143.91;100.00;62816.50;4943739;28;100909;-63
2021/01/07 08:19:21;;;;;;;14.07;8.90;;;1.80;99.90;;;-143.91;100.00;62816.50;4944022;28;100141;-63
2021/01/07 08:21:50;;;;;;;14.43;9.73;;;1.70;99.90;;;-143.91;100.00;62816.50;4943757;28;100327;-63
2021/01/07 08:24:21;;;;;;;16.90;9.73;;;1.90;99.90;;;-143.91;100.00;62816.50;4943547;28;101893;-62
2021/01/07 08:27:18;;;;;;;16.40;9.97;;;2.10;99.90;;;-143.91;100.00;62816.50;4944261;28;100590;-62
2021/01/07 08:29:47;;;;;;;16.20;10.67;;;1.90;99.90;;;-143.91;100.00;62816.50;4943706;28;100179;-63
2021/01/07 08:32:18;;;;;;;17.43;10.27;;;2.00;99.90;;;-143.91;100.00;62816.50;4944418;28;100131;-63
2021/01/07 08:34:46;;;;;;;16.37;10.57;;;2.60;99.90;;;-143.91;100.00;62816.50;4943068;28;100654;-64
2021/01/07 08:37:19;;;;;;;15.97;10.27;;;1.80;99.90;;;-143.91;100.00;62816.50;4943869;28;100995;-63
2021/01/07 08:39:47;;;;;;;15.63;9.87;;;1.90;99.90;;;-143.91;100.00;62816.50;4943587;28;100393;-64
2021/01/07 08:42:14;;;;;;;16.70;10.10;;;1.80;99.90;;;-143.91;100.00;62816.50;4944166;28;100294;-64
2021/01/07 08:44:42;;;;;;;15.83;10.10;;;2.00;99.90;;;-143.91;100.00;62816.50;4943647;28;102120;-63
2021/01/07 08:47:21;;;;;;;14.80;9.43;;;2.00;99.90;;;-143.91;100.00;62816.50;4942952;28;101503;-64
2021/01/07 08:50:04;;;;;;;15.83;10.43;;;2.00;99.90;;;-143.91;100.00;62816.50;4943391;28;99960;-63
2021/01/07 08:52:31;;;;;;;13.17;8.87;;;3.20;99.90;;;-143.91;100.00;62816.50;4944142;28;99908;-63
2021/01/07 08:54:58;;;;;;;13.67;9.47;;;1.90;99.90;;;-143.91;100.00;62816.50;4942906;28;101703;-63
2021/01/07 08:57:25;;;;;;;14.33;10.07;;;1.80;99.90;;;-143.91;100.00;62816.50;4942173;28;100870;-64
2021/01/07 08:59:51;;;;;;;14.80;10.57;;;2.00;99.90;;;-143.91;100.00;62816.50;4942578;28;100220;-63
2021/01/07 09:02:20;;;;;;;14.00;10.97;;;1.90;99.90;;;-143.91;100.00;62816.50;4943882;28;100058;-63
2021/01/07 09:04:50;;;;;;;14.30;9.43;;;2.00;99.90;;;-143.91;100.00;62816.50;4941992;28;102583;-64
2021/01/07 09:07:20;;;;;;;13.50;9.03;;;2.00;99.90;;;-143.91;100.00;62816.50;4944255;28;101171;-63
2021/01/07 09:09:49;;;;;;;15.73;11.03;;;2.70;99.90;;;-143.91;100.00;62816.50;4943234;28;100198;-64
2021/01/07 09:12:21;;;;;;;13.63;9.20;;;2.20;99.90;;;-143.91;100.00;62816.50;4943118;28;100151;-64
2021/01/07 09:14:59;;;;;;;15.50;9.47;;;2.10;99.90;;;-143.91;100.00;62816.50;4941720;28;100969;-63
2021/01/07 09:17:38;;;;;;;13.37;8.93;;;2.30;99.90;;;-143.91;100.00;62816.50;4943138;28;100967;-64
2021/01/07 09:20:07;;;;;;;12.63;9.83;;;2.10;99.90;;;-143.91;100.00;62816.50;4942979;28;100063;-64
2021/01/07 09:22:33;;;;;;;12.60;8.80;;;2.00;99.90;;;-143.91;100.00;62816.50;4942115;28;100056;-64
2021/01/07 09:25:01;;;;;;;16.73;10.57;;;2.20;99.90;;;-143.91;100.00;62816.50;4942148;28;100368;-63
2021/01/07 09:27:28;;;;;;;15.93;10.07;;;2.20;99.90;;;-143.91;100.00;62816.50;4942782;28;100954;-62
2021/01/07 09:29:55;;;;;;;15.00;11.17;;;2.10;99.90;;;-143.91;100.00;62816.50;4950356;28;100434;-63
2021/01/07 09:32:21;;;;;;;15.37;10.70;;;2.20;99.90;;;-143.91;100.00;62816.50;4924644;28;100290;-62
2021/01/07 09:34:48;;;;;;;17.17;9.43;;;2.20;99.90;;;-143.91;100.00;62816.50;4952813;28;101226;-62
2021/01/07 09:37:17;;;;;;;11.33;8.53;;;2.20;99.90;;;-143.91;100.00;62816.50;4965375;28;100975;-65
2021/01/07 09:39:47;;;;;;;13.10;8.47;;;2.30;99.90;;;-143.91;100.00;62816.50;4962931;28;100120;-64
2021/01/07 09:42:14;;;;;;;14.60;9.07;;;2.20;99.90;;;-143.91;100.00;62816.50;4963716;28;100184;-64
2021/01/07 09:44:41;;;;;;;14.47;9.30;;;2.20;99.90;;;-143.91;100.00;62816.50;4956105;28;101107;-63
2021/01/07 09:47:08;;;;;;;13.77;8.07;;;2.10;99.90;;;-143.91;100.00;62816.50;4943387;28;100582;-63
2021/01/07 09:49:36;;;;;;;12.93;8.40;;;2.30;99.90;;;-143.91;100.00;62816.50;4942075;28;100406;-61
2021/01/07 09:52:04;;;;;;;13.50;8.33;;;2.10;99.90;;;-143.91;100.00;62816.50;4941327;28;100926;-63
2021/01/07 09:54:30;;;;;;;13.43;8.90;;;2.20;99.90;;;-143.91;100.00;62816.50;4942906;28;101122;-63